Time;durP1;ratioP1;P1;durP2;ratioP2;P2;SDS_P1;SDS_P2;PMS_P1;PMS_P2;Temp;Humidity;BMP_temperature;BMP_pressure;BME280_temperature;BME280_humidity;BME280_pressure;Samples;Min_cycle;Max_cycle;Signal;HPM_P1;HPM_P2
2023/07/15 00:00:34;;;;;;;;;;;;;;;;;;7390294;19;19929;-68
2023/07/15 00:02:59;;;;;;;;;;;;;;;;;;7368107;19;20781;-69
2023/07/15 00:05:28;;;;;;;;;;;;;;;;;;7369105;19;20659;-68
2023/07/15 00:07:53;;;;;;;;;;;;;;;;;;7367984;19;19921;-69
2023/07/15 00:10:21;;;;;;;;;;;;;;;;;;7368973;19;19911;-68
2023/07/15 00:12:46;;;;;;;;;;;;;;;;;;7386888;19;19950;-68
2023/07/15 00:15:12;;;;;;;;;;;;;;;;;;7372645;19;19926;-68
2023/07/15 00:17:38;;;;;;;;;;;;;;;;;;7367991;19;19925;-68
2023/07/15 00:20:07;;;;;;;;;;;;;;;;;;7368341;19;19915;-68
2023/07/15 00:22:32;;;;;;;;;;;;;;;;;;7368951;19;19919;-68
2023/07/15 00:24:58;;;;;;;;;;;;;;;;;;7368674;19;19919;-68
2023/07/15 00:27:24;;;;;;;;;;;;;;;;;;7389041;19;19933;-68
2023/07/15 00:29:50;;;;;;;;;;;;;;;;;;7367424;19;19932;-68
2023/07/15 00:32:16;;;;;;;;;;;;;;;;;;7368353;19;19926;-68
2023/07/15 00:34:41;;;;;;;;;;;;;;;;;;7368674;19;19987;-68
2023/07/15 00:37:06;;;;;;;;;;;;;;;;;;7368399;19;19920;-68
2023/07/15 00:39:32;;;;;;;;;;;;;;;;;;7383403;19;19915;-68
2023/07/15 00:41:59;;;;;;;;;;;;;;;;;;7366381;19;19911;-69
2023/07/15 00:44:24;;;;;;;;;;;;;;;;;;7364925;19;19915;-68
2023/07/15 00:46:56;;;;;;;;;;;;;;;;;;7365385;19;19918;-68
2023/07/15 00:49:31;;;;;;;;;;;;;;;;;;7367529;19;19919;-68
2023/07/15 00:52:00;;;;;;;;;;;;;;;;;;7365155;19;20354;-68
2023/07/15 00:54:26;;;;;;;;;;;;;;;;;;7384772;19;19994;-68
2023/07/15 00:56:51;;;;;;;;;;;;;;;;;;7361460;19;19925;-68
2023/07/15 00:59:17;;;;;;;;;;;;;;;;;;7361979;19;19919;-68
2023/07/15 01:01:44;;;;;;;;;;;;;;;;;;7363139;19;19911;-68
2023/07/15 01:04:09;;;;;;;;;;;;;;;;;;7365487;19;19922;-68
2023/07/15 01:06:35;;;;;;;;;;;;;;;;;;7385781;19;19911;-68
2023/07/15 01:09:01;;;;;;;;;;;;;;;;;;7365849;19;19926;-68
2023/07/15 01:11:29;;;;;;;;;;;;;;;;;;7366483;19;20012;-68
2023/07/15 01:13:54;;;;;;;;;;;;;;;;;;7367012;19;20433;-68
2023/07/15 01:16:20;;;;;;;;;;;;;;;;;;7365499;19;19917;-69
2023/07/15 01:18:45;;;;;;;;;;;;;;;;;;7389080;19;19926;-68
2023/07/15 01:21:11;;;;;;;;;;;;;;;;;;7369262;19;19915;-67
2023/07/15 01:23:36;;;;;;;;;;;;;;;;;;7362934;19;19974;-68
2023/07/15 01:26:01;;;;;;;;;;;;;;;;;;7366373;19;20404;-68
2023/07/15 01:28:27;;;;;;;;;;;;;;;;;;7365740;19;19907;-70
2023/07/15 01:30:52;;;;;;;;;;;;;;;;;;7363696;19;19940;-68
2023/07/15 01:33:18;;;;;;;;;;;;;;;;;;7385050;19;19993;-69
2023/07/15 01:35:47;;;;;;;;;;;;;;;;;;7366358;19;19945;-69
2023/07/15 01:38:13;;;;;;;;;;;;;;;;;;7364045;19;19915;-69
2023/07/15 01:40:38;;;;;;;;;;;;;;;;;;7366424;19;19926;-69
2023/07/15 01:43:04;;;;;;;;;;;;;;;;;;7366019;19;19925;-68
2023/07/15 01:45:30;;;;;;;;;;;;;;;;;;7390025;19;20347;-68
2023/07/15 01:47:55;;;;;;;;;;;;;;;;;;7364846;19;19919;-67
2023/07/15 01:50:20;;;;;;;;;;;;;;;;;;7367203;19;19939;-67
2023/07/15 01:52:46;;;;;;;;;;;;;;;;;;7365900;19;19944;-69
2023/07/15 01:55:11;;;;;;;;;;;;;;;;;;7363616;19;19918;-69
2023/07/15 01:57:36;;;;;;;;;;;;;;;;;;7382962;19;19923;-69
2023/07/15 02:00:02;;;;;;;;;;;;;;;;;;7363008;19;19915;-69
2023/07/15 02:02:28;;;;;;;;;;;;;;;;;;7364130;19;19918;-69
2023/07/15 02:04:53;;;;;;;;;;;;;;;;;;7366183;19;19933;-69
2023/07/15 02:07:18;;;;;;;;;;;;;;;;;;7364475;19;19931;-69
2023/07/15 02:09:43;;;;;;;;;;;;;;;;;;7387221;19;19923;-69
2023/07/15 02:12:09;;;;;;;;;;;;;;;;;;7364198;19;19915;-69
2023/07/15 02:14:36;;;;;;;;;;;;;;;;;;7364840;19;19978;-69
2023/07/15 02:17:03;;;;;;;;;;;;;;;;;;7364474;19;20349;-69
2023/07/15 02:19:28;;;;;;;;;;;;;;;;;;7362787;19;19915;-69
2023/07/15 02:21:54;;;;;;;;;;;;;;;;;;7361751;19;19925;-69
2023/07/15 02:24:19;;;;;;;;;;;;;;;;;;7383503;19;20354;-69
2023/07/15 02:26:44;;;;;;;;;;;;;;;;;;7363196;19;19987;-69
2023/07/15 02:29:09;;;;;;;;;;;;;;;;;;7364334;19;19944;-69
2023/07/15 02:31:35;;;;;;;;;;;;;;;;;;7361467;19;19919;-69
2023/07/15 02:34:00;;;;;;;;;;;;;;;;;;7361972;19;19922;-69
2023/07/15 02:36:25;;;;;;;;;;;;;;;;;;7385379;19;20698;-69
2023/07/15 02:38:50;;;;;;;;;;;;;;;;;;7363822;19;20557;-69
2023/07/15 02:41:16;;;;;;;;;;;;;;;;;;7364159;19;19921;-69
2023/07/15 02:43:41;;;;;;;;;;;;;;;;;;7370606;19;19935;-69
2023/07/15 02:46:06;;;;;;;;;;;;;;;;;;7369421;19;20336;-69
2023/07/15 02:48:31;;;;;;;;;;;;;;;;;;7389774;19;20279;-69
2023/07/15 02:50:57;;;;;;;;;;;;;;;;;;7367776;19;19940;-69
2023/07/15 02:53:22;;;;;;;;;;;;;;;;;;7370298;19;19925;-69
2023/07/15 02:55:48;;;;;;;;;;;;;;;;;;7369697;19;19994;-69
2023/07/15 02:58:13;;;;;;;;;;;;;;;;;;7369221;19;19930;-69
2023/07/15 03:00:39;;;;;;;;;;;;;;;;;;7391323;19;20602;-69
2023/07/15 03:03:04;;;;;;;;;;;;;;;;;;7369086;19;19935;-69
2023/07/15 03:05:29;;;;;;;;;;;;;;;;;;7368976;19;19923;-69
2023/07/15 03:07:54;;;;;;;;;;;;;;;;;;7370078;19;19922;-69
2023/07/15 03:10:20;;;;;;;;;;;;;;;;;;7370359;19;19936;-68
2023/07/15 03:12:48;;;;;;;;;;;;;;;;;;7391123;19;19940;-68
2023/07/15 03:15:14;;;;;;;;;;;;;;;;;;7369873;19;20311;-69
2023/07/15 03:17:39;;;;;;;;;;;;;;;;;;7369625;19;19944;-69
2023/07/15 03:20:20;;;;;;;;;;;;;;;;;;7365954;19;19998;-69
2023/07/15 03:22:50;;;;;;;;;;;;;;;;;;7368924;19;19915;-69
2023/07/15 03:25:16;;;;;;;;;;;;;;;;;;7369123;19;19914;-69
2023/07/15 03:27:42;;;;;;;;;;;;;;;;;;7390647;19;19982;-69
2023/07/15 03:30:08;;;;;;;;;;;;;;;;;;7367358;19;20339;-69
2023/07/15 03:32:34;;;;;;;;;;;;;;;;;;7367102;19;19919;-69
2023/07/15 03:34:59;;;;;;;;;;;;;;;;;;7365968;19;20380;-69
2023/07/15 03:37:25;;;;;;;;;;;;;;;;;;7363960;19;19916;-69
2023/07/15 03:39:50;;;;;;;;;;;;;;;;;;7364089;19;20030;-69
2023/07/15 03:42:17;;;;;;;;;;;;;;;;;;7383317;19;19914;-68
2023/07/15 03:44:42;;;;;;;;;;;;;;;;;;7365189;19;19927;-69
2023/07/15 03:47:07;;;;;;;;;;;;;;;;;;7365640;19;19975;-69
2023/07/15 03:49:33;;;;;;;;;;;;;;;;;;7372839;19;19999;-69
2023/07/15 03:51:58;;;;;;;;;;;;;;;;;;7369871;19;19927;-69
2023/07/15 03:54:24;;;;;;;;;;;;;;;;;;7390203;19;20766;-68
2023/07/15 03:56:49;;;;;;;;;;;;;;;;;;7366935;19;19918;-69
2023/07/15 03:59:14;;;;;;;;;;;;;;;;;;7366707;19;19911;-67
2023/07/15 04:01:39;;;;;;;;;;;;;;;;;;7365461;19;19930;-68
2023/07/15 04:04:08;;;;;;;;;;;;;;;;;;7366297;19;19945;-69
2023/07/15 04:06:33;;;;;;;;;;;;;;;;;;7387294;19;19926;-69
2023/07/15 04:08:59;;;;;;;;;;;;;;;;;;7367881;19;19926;-68
2023/07/15 04:11:24;;;;;;;;;;;;;;;;;;7367075;19;20310;-67
2023/07/15 04:13:49;;;;;;;;;;;;;;;;;;7366496;19;20285;-67
2023/07/15 04:16:14;;;;;;;;;;;;;;;;;;7366520;19;19915;-68
2023/07/15 04:18:40;;;;;;;;;;;;;;;;;;7385894;19;19930;-68
2023/07/15 04:21:06;;;;;;;;;;;;;;;;;;7366607;19;20353;-68
2023/07/15 04:23:31;;;;;;;;;;;;;;;;;;7364637;19;19958;-68
2023/07/15 04:25:56;;;;;;;;;;;;;;;;;;7366626;19;20286;-68
2023/07/15 04:28:21;;;;;;;;;;;;;;;;;;7365249;19;19915;-68
2023/07/15 04:30:47;;;;;;;;;;;;;;;;;;7379620;19;19919;-68
2023/07/15 04:33:12;;;;;;;;;;;;;;;;;;7205700;19;3428101;-68
2023/07/15 04:35:37;;;;;;;;;;;;;;;;;;7369690;19;19914;-68
2023/07/15 04:38:03;;;;;;;;;;;;;;;;;;7366347;19;19923;-68
2023/07/15 04:40:28;;;;;;;;;;;;;;;;;;7368501;19;19982;-67
2023/07/15 04:42:54;;;;;;;;;;;;;;;;;;7366325;19;19975;-68
2023/07/15 04:45:19;;;;;;;;;;;;;;;;;;7388469;19;19911;-69
2023/07/15 04:47:44;;;;;;;;;;;;;;;;;;7363072;19;19923;-68
2023/07/15 04:50:09;;;;;;;;;;;;;;;;;;7366328;19;19918;-69
2023/07/15 04:52:34;;;;;;;;;;;;;;;;;;7366273;19;19926;-69
2023/07/15 04:55:00;;;;;;;;;;;;;;;;;;7364910;19;20255;-68
2023/07/15 04:57:25;;;;;;;;;;;;;;;;;;7389223;19;19926;-68
2023/07/15 04:59:52;;;;;;;;;;;;;;;;;;7366172;19;19929;-68
2023/07/15 05:02:17;;;;;;;;;;;;;;;;;;7367734;19;19915;-68
2023/07/15 05:04:42;;;;;;;;;;;;;;;;;;7364848;19;19915;-68
2023/07/15 05:07:07;;;;;;;;;;;;;;;;;;7367339;19;20286;-68
2023/07/15 05:09:33;;;;;;;;;;;;;;;;;;7386567;19;20405;-68
2023/07/15 05:11:58;;;;;;;;;;;;;;;;;;7364842;19;19922;-68
2023/07/15 05:14:23;;;;;;;;;;;;;;;;;;7363673;19;19922;-68
2023/07/15 05:16:48;;;;;;;;;;;;;;;;;;7364949;19;20002;-68
2023/07/15 05:19:13;;;;;;;;;;;;;;;;;;7364974;19;19911;-68
2023/07/15 05:21:39;;;;;;;;;;;;;;;;;;7389667;19;19930;-68
2023/07/15 05:24:04;;;;;;;;;;;;;;;;;;7367316;19;19927;-67
2023/07/15 05:26:30;;;;;;;;;;;;;;;;;;7367906;19;20008;-67
2023/07/15 05:28:55;;;;;;;;;;;;;;;;;;7365655;19;19915;-68
2023/07/15 05:31:20;;;;;;;;;;;;;;;;;;7362543;19;19938;-67
2023/07/15 05:33:46;;;;;;;;;;;;;;;;;;7387312;19;19922;-69
2023/07/15 05:36:12;;;;;;;;;;;;;;;;;;7365854;19;20541;-67
2023/07/15 05:38:42;;;;;;;;;;;;;;;;;;7364083;19;19914;-68
2023/07/15 05:41:07;;;;;;;;;;;;;;;;;;7361242;19;19988;-68
2023/07/15 05:43:32;;;;;;;;;;;;;;;;;;7363695;19;20213;-68
2023/07/15 05:45:57;;;;;;;;;;;;;;;;;;7361790;19;19918;-68
2023/07/15 05:48:22;;;;;;;;;;;;;;;;;;7385803;19;19931;-68
2023/07/15 05:50:48;;;;;;;;;;;;;;;;;;7365014;19;19923;-68
2023/07/15 05:53:13;;;;;;;;;;;;;;;;;;7366349;19;19922;-68
2023/07/15 05:55:38;;;;;;;;;;;;;;;;;;7365313;19;19926;-68
2023/07/15 05:58:09;;;;;;;;;;;;;;;;;;7364881;19;19925;-69
2023/07/15 06:00:34;;;;;;;;;;;;;;;;;;7384065;19;20297;-68
2023/07/15 06:03:00;;;;;;;;;;;;;;;;;;7365199;19;19930;-68
2023/07/15 06:05:25;;;;;;;;;;;;;;;;;;7366676;19;19915;-67
2023/07/15 06:07:50;;;;;;;;;;;;;;;;;;7367495;19;19914;-68
2023/07/15 06:10:16;;;;;;;;;;;;;;;;;;7367775;19;19919;-68
2023/07/15 06:12:41;;;;;;;;;;;;;;;;;;7386692;19;20289;-69
2023/07/15 06:15:07;;;;;;;;;;;;;;;;;;7363317;19;19919;-69
2023/07/15 06:17:32;;;;;;;;;;;;;;;;;;7359950;19;20597;-68
2023/07/15 06:19:57;;;;;;;;;;;;;;;;;;7358927;19;19914;-66
2023/07/15 06:22:23;;;;;;;;;;;;;;;;;;7366128;19;20387;-65
2023/07/15 06:24:48;;;;;;;;;;;;;;;;;;7363681;19;20350;-65
2023/07/15 06:27:13;;;;;;;;;;;;;;;;;;7384453;19;19936;-66
2023/07/15 06:29:38;;;;;;;;;;;;;;;;;;7365233;19;19915;-65
2023/07/15 06:32:04;;;;;;;;;;;;;;;;;;7366366;19;20526;-66
2023/07/15 06:34:31;;;;;;;;;;;;;;;;;;7367274;19;20626;-65
2023/07/15 06:36:56;;;;;;;;;;;;;;;;;;7365799;19;19918;-65
2023/07/15 06:39:22;;;;;;;;;;;;;;;;;;7386859;19;19930;-65
2023/07/15 06:41:47;;;;;;;;;;;;;;;;;;7365354;19;19919;-66
2023/07/15 06:44:12;;;;;;;;;;;;;;;;;;7365274;19;20370;-66
2023/07/15 06:46:37;;;;;;;;;;;;;;;;;;7366763;19;20268;-66
2023/07/15 06:49:02;;;;;;;;;;;;;;;;;;7364277;19;19948;-66
2023/07/15 06:51:28;;;;;;;;;;;;;;;;;;7385331;19;20009;-66
2023/07/15 06:53:53;;;;;;;;;;;;;;;;;;7365317;19;19930;-66
2023/07/15 06:56:18;;;;;;;;;;;;;;;;;;7365539;19;19944;-66
2023/07/15 06:58:44;;;;;;;;;;;;;;;;;;7362182;19;19919;-65
2023/07/15 07:01:09;;;;;;;;;;;;;;;;;;7362426;19;19919;-67
2023/07/15 07:03:34;;;;;;;;;;;;;;;;;;7384881;19;20002;-65
2023/07/15 07:06:01;;;;;;;;;;;;;;;;;;7363473;19;19983;-64
2023/07/15 07:08:26;;;;;;;;;;;;;;;;;;7364357;19;19954;-65
2023/07/15 07:10:52;;;;;;;;;;;;;;;;;;7365334;19;20262;-65
2023/07/15 07:13:18;;;;;;;;;;;;;;;;;;7364665;19;19911;-65
2023/07/15 07:15:43;;;;;;;;;;;;;;;;;;7385633;19;19930;-65
2023/07/15 07:18:08;;;;;;;;;;;;;;;;;;7361745;19;19927;-66
2023/07/15 07:20:33;;;;;;;;;;;;;;;;;;7362492;19;20633;-65
2023/07/15 07:22:59;;;;;;;;;;;;;;;;;;7362029;19;19919;-64
2023/07/15 07:25:24;;;;;;;;;;;;;;;;;;7357048;19;19930;-64
2023/07/15 07:27:49;;;;;;;;;;;;;;;;;;7363890;19;20376;-64
2023/07/15 07:30:14;;;;;;;;;;;;;;;;;;7390814;19;20546;-64
2023/07/15 07:32:40;;;;;;;;;;;;;;;;;;7368333;19;19958;-64
2023/07/15 07:35:05;;;;;;;;;;;;;;;;;;7370711;19;19919;-64
2023/07/15 07:37:31;;;;;;;;;;;;;;;;;;7371696;19;20369;-63
2023/07/15 07:39:56;;;;;;;;;;;;;;;;;;7369009;19;19919;-64
2023/07/15 07:42:21;;;;;;;;;;;;;;;;;;7391877;19;19943;-64
2023/07/15 07:44:46;;;;;;;;;;;;;;;;;;7370916;19;19922;-64
2023/07/15 07:49:23;;;;;;;;;;;;;;;;;;7399466;19;20355;-63
2023/07/15 07:51:48;;;;;;;;;;;;;;;;;;7401477;19;19918;-72
2023/07/15 07:54:13;;;;;;;;;;;;;;;;;;7416982;19;19922;-72
2023/07/15 07:56:38;;;;;;;;;;;;;;;;;;7396316;19;20286;-72
2023/07/15 07:59:04;;;;;;;;;;;;;;;;;;7393229;19;20438;-72
2023/07/15 08:01:31;;;;;;;;;;;;;;;;;;7396212;19;20399;-73
2023/07/15 08:03:56;;;;;;;;;;;;;;;;;;7397167;19;20520;-73
2023/07/15 08:06:21;;;;;;;;;;;;;;;;;;7419576;19;19922;-72
2023/07/15 08:08:47;;;;;;;;;;;;;;;;;;7396223;19;20380;-72
2023/07/15 08:11:12;;;;;;;;;;;;;;;;;;7401184;19;19921;-72
2023/07/15 08:13:37;;;;;;;;;;;;;;;;;;7403172;19;19923;-73
2023/07/15 08:16:02;;;;;;;;;;;;;;;;;;7401583;19;19918;-73
2023/07/15 08:18:28;;;;;;;;;;;;;;;;;;7423844;19;19921;-73
2023/07/15 08:20:53;;;;;;;;;;;;;;;;;;7400811;19;20006;-74
2023/07/15 08:23:20;;;;;;;;;;;;;;;;;;7402263;19;19926;-72
2023/07/15 08:25:45;;;;;;;;;;;;;;;;;;7402641;19;20008;-73
2023/07/15 08:28:10;;;;;;;;;;;;;;;;;;7399784;19;20527;-73
2023/07/15 08:30:36;;;;;;;;;;;;;;;;;;7421906;19;19914;-73
2023/07/15 08:33:04;;;;;;;;;;;;;;;;;;7402341;19;19939;-73
2023/07/15 08:35:30;;;;;;;;;;;;;;;;;;7401795;19;19925;-74
2023/07/15 08:37:55;;;;;;;;;;;;;;;;;;7401493;19;19927;-73
2023/07/15 08:40:23;;;;;;;;;;;;;;;;;;7399998;19;19930;-72
2023/07/15 08:42:48;;;;;;;;;;;;;;;;;;7401379;19;19936;-72
2023/07/15 08:45:13;;;;;;;;;;;;;;;;;;7423143;19;19923;-72
2023/07/15 08:47:43;;;;;;;;;;;;;;;;;;7406802;19;19947;-73
2023/07/15 08:50:10;;;;;;;;;;;;;;;;;;7399473;19;19926;-63
2023/07/15 08:52:36;;;;;;;;;;;;;;;;;;7400920;19;19922;-64
2023/07/15 08:55:02;;;;;;;;;;;;;;;;;;7399175;19;19993;-62
2023/07/15 08:57:27;;;;;;;;;;;;;;;;;;7421488;19;19914;-62
2023/07/15 08:59:54;;;;;;;;;;;;;;;;;;7374509;19;19989;-62
2023/07/15 09:02:20;;;;;;;;;;;;;;;;;;7371505;19;19933;-60
2023/07/15 09:04:45;;;;;;;;;;;;;;;;;;7371002;19;19982;-60
2023/07/15 09:07:10;;;;;;;;;;;;;;;;;;7369926;19;19927;-63
2023/07/15 09:09:37;;;;;;;;;;;;;;;;;;7392828;19;19919;-60
2023/07/15 09:13:21;;;;;;;;;;;;;;;;;;7401255;19;19978;-60
2023/07/15 09:15:46;;;;;;;;;;;;;;;;;;7419946;19;19915;-59
2023/07/15 09:18:12;;;;;;;;;;;;;;;;;;7407524;19;19925;-59
2023/07/15 09:20:37;;;;;;;;;;;;;;;;;;7399659;19;19923;-59
2023/07/15 09:23:02;;;;;;;;;;;;;;;;;;7399907;19;19922;-61
2023/07/15 09:25:28;;;;;;;;;;;;;;;;;;7401372;19;19923;-61
2023/07/15 09:27:53;;;;;;;;;;;;;;;;;;7399200;19;19923;-61
2023/07/15 09:30:19;;;;;;;;;;;;;;;;;;7422228;19;19922;-60
2023/07/15 09:32:44;;;;;;;;;;;;;;;;;;7400040;19;19954;-60
2023/07/15 09:35:10;;;;;;;;;;;;;;;;;;7400464;19;19926;-60
2023/07/15 09:37:35;;;;;;;;;;;;;;;;;;7399499;19;19922;-60
2023/07/15 09:40:04;;;;;;;;;;;;;;;;;;7396453;19;19911;-59
2023/07/15 09:42:29;;;;;;;;;;;;;;;;;;7420866;19;20058;-60
2023/07/15 09:44:55;;;;;;;;;;;;;;;;;;7399879;19;20258;-60
2023/07/15 09:47:20;;;;;;;;;;;;;;;;;;7397575;19;19914;-61
2023/07/15 09:49:45;;;;;;;;;;;;;;;;;;7400017;19;19971;-61
2023/07/15 09:52:11;;;;;;;;;;;;;;;;;;7396674;19;19914;-60
2023/07/15 09:54:39;;;;;;;;;;;;;;;;;;7419673;19;19923;-59
2023/07/15 09:57:10;;;;;;;;;;;;;;;;;;7396604;19;20303;-59
2023/07/15 09:59:46;;;;;;;;;;;;;;;;;;7398861;19;19915;-60
2023/07/15 10:02:11;;;;;;;;;;;;;;;;;;7399401;19;19940;-60
2023/07/15 10:04:40;;;;;;;;;;;;;;;;;;7400119;19;19987;-59
2023/07/15 10:07:05;;;;;;;;;;;;;;;;;;7397557;19;20177;-59
2023/07/15 10:09:31;;;;;;;;;;;;;;;;;;7423265;19;19919;-61
2023/07/15 10:11:56;;;;;;;;;;;;;;;;;;7398762;19;19921;-60
2023/07/15 10:14:22;;;;;;;;;;;;;;;;;;7401594;19;19958;-60
2023/07/15 10:17:07;;;;;;;;;;;;;;;;;;7401235;19;19919;-61
2023/07/15 10:20:02;;;;;;;;;;;;;;;;;;7399693;19;20026;-61
2023/07/15 10:22:32;;;;;;;;;;;;;;;;;;7396698;19;19950;-60
2023/07/15 10:24:57;;;;;;;;;;;;;;;;;;7370855;19;20354;-60
2023/07/15 10:27:30;;;;;;;;;;;;;;;;;;7388564;19;19976;-59
2023/07/15 10:30:15;;;;;;;;;;;;;;;;;;7368930;19;19941;-59
2023/07/15 10:32:59;;;;;;;;;;;;;;;;;;7369021;19;20465;-61
2023/07/15 10:35:27;;;;;;;;;;;;;;;;;;7371037;19;19919;-59
2023/07/15 10:37:52;;;;;;;;;;;;;;;;;;7371875;19;20301;-58
2023/07/15 10:40:36;;;;;;;;;;;;;;;;;;7370495;19;19922;-55
2023/07/15 10:43:07;;;;;;;;;;;;;;;;;;7371808;19;19919;-60
2023/07/15 10:45:41;;;;;;;;;;;;;;;;;;7391972;19;20010;-60
2023/07/15 10:48:07;;;;;;;;;;;;;;;;;;7368831;19;19982;-58
2023/07/15 10:50:32;;;;;;;;;;;;;;;;;;7369992;19;19957;-57
2023/07/15 10:53:17;;;;;;;;;;;;;;;;;;7370429;19;19946;-57
2023/07/15 10:55:42;;;;;;;;;;;;;;;;;;7369692;19;19919;-60
2023/07/15 10:58:07;;;;;;;;;;;;;;;;;;7368370;19;20071;-59
2023/07/15 11:00:33;;;;;;;;;;;;;;;;;;7390209;19;19911;-60
2023/07/15 11:02:58;;;;;;;;;;;;;;;;;;7370158;19;20285;-59
2023/07/15 11:05:24;;;;;;;;;;;;;;;;;;7369753;19;19919;-60
2023/07/15 11:07:49;;;;;;;;;;;;;;;;;;7369565;19;19919;-60
2023/07/15 11:10:15;;;;;;;;;;;;;;;;;;7367981;19;19929;-60
2023/07/15 11:12:40;;;;;;;;;;;;;;;;;;7386426;19;20657;-60
2023/07/15 11:15:05;;;;;;;;;;;;;;;;;;7365812;19;19919;-60
2023/07/15 11:17:31;;;;;;;;;;;;;;;;;;7365259;19;19922;-60
2023/07/15 11:19:56;;;;;;;;;;;;;;;;;;7366888;19;20271;-60
2023/07/15 11:22:21;;;;;;;;;;;;;;;;;;7365365;19;19922;-60
2023/07/15 11:24:48;;;;;;;;;;;;;;;;;;7381687;19;19934;-64
2023/07/15 11:27:13;;;;;;;;;;;;;;;;;;7388402;19;19926;-64
2023/07/15 11:29:38;;;;;;;;;;;;;;;;;;7369093;19;19930;-61
2023/07/15 11:32:06;;;;;;;;;;;;;;;;;;7362069;19;19921;-61
2023/07/15 11:34:31;;;;;;;;;;;;;;;;;;7366306;19;20383;-62
2023/07/15 11:37:02;;;;;;;;;;;;;;;;;;7368734;19;19911;-61
2023/07/15 11:39:28;;;;;;;;;;;;;;;;;;7391502;19;20246;-62
2023/07/15 11:41:53;;;;;;;;;;;;;;;;;;7367930;19;20206;-61
2023/07/15 11:44:22;;;;;;;;;;;;;;;;;;7370435;19;19942;-61
2023/07/15 11:46:48;;;;;;;;;;;;;;;;;;7368913;19;19922;-61
2023/07/15 11:49:19;;;;;;;;;;;;;;;;;;7367588;19;19919;-62
2023/07/15 11:51:44;;;;;;;;;;;;;;;;;;7389695;19;19929;-62
2023/07/15 11:54:10;;;;;;;;;;;;;;;;;;7367418;19;20319;-62
2023/07/15 11:56:36;;;;;;;;;;;;;;;;;;7368539;19;19914;-60
2023/07/15 11:59:02;;;;;;;;;;;;;;;;;;7369683;19;19915;-60
2023/07/15 12:01:27;;;;;;;;;;;;;;;;;;7368313;19;20523;-62
2023/07/15 12:03:53;;;;;;;;;;;;;;;;;;7368655;19;19918;-62
2023/07/15 12:06:26;;;;;;;;;;;;;;;;;;7389731;19;19911;-62
2023/07/15 12:09:04;;;;;;;;;;;;;;;;;;7366774;19;19925;-61
2023/07/15 12:11:30;;;;;;;;;;;;;;;;;;7361874;19;19931;-60
2023/07/15 12:13:56;;;;;;;;;;;;;;;;;;7367604;19;20449;-59
2023/07/15 12:16:21;;;;;;;;;;;;;;;;;;7366498;19;19926;-58
2023/07/15 12:18:47;;;;;;;;;;;;;;;;;;7378183;19;19927;-61
2023/07/15 12:21:12;;;;;;;;;;;;;;;;;;7377078;19;19919;-62
2023/07/15 12:23:37;;;;;;;;;;;;;;;;;;7359866;19;19973;-62
2023/07/15 12:26:03;;;;;;;;;;;;;;;;;;7364415;19;19953;-61
2023/07/15 12:28:28;;;;;;;;;;;;;;;;;;7365646;19;19915;-62
2023/07/15 12:30:53;;;;;;;;;;;;;;;;;;7365223;19;20262;-61
2023/07/15 12:33:18;;;;;;;;;;;;;;;;;;7385789;19;19906;-61
2023/07/15 12:35:43;;;;;;;;;;;;;;;;;;7363825;19;19948;-62
2023/07/15 12:38:09;;;;;;;;;;;;;;;;;;7364239;19;20022;-60
2023/07/15 12:40:34;;;;;;;;;;;;;;;;;;7364140;19;19923;-62
2023/07/15 12:42:59;;;;;;;;;;;;;;;;;;7361544;19;19915;-67
2023/07/15 12:45:24;;;;;;;;;;;;;;;;;;7383290;19;20758;-61
2023/07/15 12:47:50;;;;;;;;;;;;;;;;;;7361257;19;20512;-61
2023/07/15 12:50:15;;;;;;;;;;;;;;;;;;7363104;19;20564;-63
2023/07/15 12:52:40;;;;;;;;;;;;;;;;;;7363515;19;20478;-64
2023/07/15 12:55:06;;;;;;;;;;;;;;;;;;7357050;19;19927;-63
2023/07/15 12:57:31;;;;;;;;;;;;;;;;;;7382459;19;19947;-63
2023/07/15 12:59:56;;;;;;;;;;;;;;;;;;7360467;19;19940;-63
2023/07/15 13:02:21;;;;;;;;;;;;;;;;;;7359988;19;19910;-62
2023/07/15 13:04:46;;;;;;;;;;;;;;;;;;7364522;19;19923;-62
2023/07/15 13:07:12;;;;;;;;;;;;;;;;;;7364720;19;19925;-62
2023/07/15 13:09:37;;;;;;;;;;;;;;;;;;7382171;19;19925;-63
2023/07/15 13:12:02;;;;;;;;;;;;;;;;;;7361444;19;19919;-62
2023/07/15 13:14:27;;;;;;;;;;;;;;;;;;7361353;19;20495;-62
2023/07/15 13:16:53;;;;;;;;;;;;;;;;;;7359760;19;19947;-62
2023/07/15 13:19:18;;;;;;;;;;;;;;;;;;7360935;19;19951;-62
2023/07/15 13:21:44;;;;;;;;;;;;;;;;;;7381318;19;19940;-63
2023/07/15 13:24:09;;;;;;;;;;;;;;;;;;7359642;19;19918;-63
2023/07/15 13:26:34;;;;;;;;;;;;;;;;;;7360863;19;19919;-62
2023/07/15 13:28:59;;;;;;;;;;;;;;;;;;7358344;19;19926;-70
2023/07/15 13:31:24;;;;;;;;;;;;;;;;;;7362468;19;19919;-69
2023/07/15 13:33:50;;;;;;;;;;;;;;;;;;7365743;19;20250;-70
2023/07/15 13:36:15;;;;;;;;;;;;;;;;;;7387627;19;20266;-70
2023/07/15 13:38:42;;;;;;;;;;;;;;;;;;7367862;19;19918;-69
2023/07/15 13:41:07;;;;;;;;;;;;;;;;;;7368425;19;19933;-70
2023/07/15 13:43:33;;;;;;;;;;;;;;;;;;7377360;19;20314;-69
2023/07/15 13:45:58;;;;;;;;;;;;;;;;;;7379380;19;19921;-70
2023/07/15 13:48:23;;;;;;;;;;;;;;;;;;7401356;19;19918;-70
2023/07/15 13:50:48;;;;;;;;;;;;;;;;;;7379015;19;19919;-70
2023/07/15 13:53:14;;;;;;;;;;;;;;;;;;7370783;19;19907;-70
2023/07/15 13:55:39;;;;;;;;;;;;;;;;;;7366502;19;19926;-69
2023/07/15 13:58:04;;;;;;;;;;;;;;;;;;7371977;19;19923;-70
2023/07/15 14:00:29;;;;;;;;;;;;;;;;;;7392737;19;19919;-70
2023/07/15 14:02:54;;;;;;;;;;;;;;;;;;7371758;19;20330;-69
2023/07/15 14:05:20;;;;;;;;;;;;;;;;;;7372176;19;19990;-70
2023/07/15 14:07:45;;;;;;;;;;;;;;;;;;7372009;19;20656;-69
2023/07/15 14:10:10;;;;;;;;;;;;;;;;;;7369236;19;19922;-70
2023/07/15 14:12:36;;;;;;;;;;;;;;;;;;7391604;19;20326;-69
2023/07/15 14:15:01;;;;;;;;;;;;;;;;;;7372696;19;19930;-70
2023/07/15 14:17:26;;;;;;;;;;;;;;;;;;7371366;19;19922;-68
2023/07/15 14:19:51;;;;;;;;;;;;;;;;;;7371312;19;19923;-68
2023/07/15 14:22:17;;;;;;;;;;;;;;;;;;7372862;19;19938;-70
2023/07/15 14:24:42;;;;;;;;;;;;;;;;;;7393923;19;20269;-70
2023/07/15 14:27:07;;;;;;;;;;;;;;;;;;7372945;19;19911;-69
2023/07/15 14:29:32;;;;;;;;;;;;;;;;;;7379658;19;19959;-69
2023/07/15 14:31:58;;;;;;;;;;;;;;;;;;7373562;19;19915;-69
2023/07/15 14:34:23;;;;;;;;;;;;;;;;;;7372060;19;19915;-69
2023/07/15 14:36:48;;;;;;;;;;;;;;;;;;7371983;19;19922;-69
2023/07/15 14:39:13;;;;;;;;;;;;;;;;;;7392323;19;19935;-69
2023/07/15 14:41:42;;;;;;;;;;;;;;;;;;7370632;19;19926;-68
2023/07/15 14:44:07;;;;;;;;;;;;;;;;;;7371938;19;20273;-69
2023/07/15 14:46:33;;;;;;;;;;;;;;;;;;7370952;19;19926;-68
2023/07/15 14:48:58;;;;;;;;;;;;;;;;;;7371297;19;20346;-69
2023/07/15 14:51:23;;;;;;;;;;;;;;;;;;7391644;19;19918;-69
2023/07/15 14:53:48;;;;;;;;;;;;;;;;;;7370489;19;19929;-70
2023/07/15 14:56:13;;;;;;;;;;;;;;;;;;7371444;19;19923;-70
2023/07/15 14:58:39;;;;;;;;;;;;;;;;;;7370809;19;19990;-70
2023/07/15 15:01:04;;;;;;;;;;;;;;;;;;7369147;19;19915;-70
2023/07/15 15:03:30;;;;;;;;;;;;;;;;;;7392195;19;19907;-70
2023/07/15 15:05:55;;;;;;;;;;;;;;;;;;7370993;19;20463;-71
2023/07/15 15:08:20;;;;;;;;;;;;;;;;;;7369442;19;20253;-70
2023/07/15 15:10:46;;;;;;;;;;;;;;;;;;7370686;19;20313;-70
2023/07/15 15:13:11;;;;;;;;;;;;;;;;;;7370577;19;19919;-70
2023/07/15 15:15:36;;;;;;;;;;;;;;;;;;7392837;19;19911;-70
2023/07/15 15:18:01;;;;;;;;;;;;;;;;;;7368284;19;19940;-70
2023/07/15 15:20:27;;;;;;;;;;;;;;;;;;7369584;19;19911;-70
2023/07/15 15:22:52;;;;;;;;;;;;;;;;;;7370039;19;19918;-70
2023/07/15 15:25:17;;;;;;;;;;;;;;;;;;7371497;19;19911;-70
2023/07/15 15:27:42;;;;;;;;;;;;;;;;;;7391081;19;20272;-70
2023/07/15 15:30:08;;;;;;;;;;;;;;;;;;7368905;19;19925;-70
2023/07/15 15:32:33;;;;;;;;;;;;;;;;;;7369388;19;19923;-69
2023/07/15 15:34:58;;;;;;;;;;;;;;;;;;7370977;19;19958;-69
2023/07/15 15:37:23;;;;;;;;;;;;;;;;;;7368777;19;19910;-70
2023/07/15 15:39:49;;;;;;;;;;;;;;;;;;7369011;19;19907;-70
2023/07/15 15:42:14;;;;;;;;;;;;;;;;;;7391326;19;19918;-70
2023/07/15 15:44:39;;;;;;;;;;;;;;;;;;7370056;19;20618;-69
2023/07/15 15:47:05;;;;;;;;;;;;;;;;;;7367269;19;20378;-69
2023/07/15 15:49:30;;;;;;;;;;;;;;;;;;7371020;19;19919;-68
2023/07/15 15:51:55;;;;;;;;;;;;;;;;;;7368484;19;19940;-68
2023/07/15 15:54:20;;;;;;;;;;;;;;;;;;7391259;19;20265;-68
2023/07/15 15:56:45;;;;;;;;;;;;;;;;;;7366723;19;19927;-68
2023/07/15 15:59:11;;;;;;;;;;;;;;;;;;7369594;19;19929;-68
2023/07/15 16:01:36;;;;;;;;;;;;;;;;;;7368500;19;19927;-68
2023/07/15 16:04:01;;;;;;;;;;;;;;;;;;7369135;19;19915;-69
2023/07/15 16:06:26;;;;;;;;;;;;;;;;;;7389329;19;20010;-68
2023/07/15 16:08:52;;;;;;;;;;;;;;;;;;7369751;19;19926;-68
2023/07/15 16:11:17;;;;;;;;;;;;;;;;;;7369494;19;20328;-70
2023/07/15 16:13:42;;;;;;;;;;;;;;;;;;7369567;19;20401;-67
2023/07/15 16:16:08;;;;;;;;;;;;;;;;;;7355573;19;19940;-66
2023/07/15 16:18:33;;;;;;;;;;;;;;;;;;7380022;19;20268;-67
2023/07/15 16:20:58;;;;;;;;;;;;;;;;;;7358047;19;19982;-67
2023/07/15 16:23:23;;;;;;;;;;;;;;;;;;7363902;19;20042;-67
2023/07/15 16:25:49;;;;;;;;;;;;;;;;;;7363132;19;19990;-67
2023/07/15 16:28:14;;;;;;;;;;;;;;;;;;7361689;19;19914;-67
2023/07/15 16:30:40;;;;;;;;;;;;;;;;;;7382422;19;19915;-67
2023/07/15 16:33:05;;;;;;;;;;;;;;;;;;7362421;19;19938;-67
2023/07/15 16:35:30;;;;;;;;;;;;;;;;;;7364512;19;19915;-67
2023/07/15 16:37:56;;;;;;;;;;;;;;;;;;7361501;19;19998;-67
2023/07/15 16:40:21;;;;;;;;;;;;;;;;;;7362411;19;19918;-67